Time;durP1;ratioP1;P1;durP2;ratioP2;P2;SDS_P1;SDS_P2;PMS_P1;PMS_P2;Temp;Humidity;BMP_temperature;BMP_pressure;BME280_temperature;BME280_humidity;BME280_pressure;Samples;Min_cycle;Max_cycle;Signal;HPM_P1;HPM_P2
2022/03/29 00:01:58;;;;;;;3.45;2.03;;;;;;;-143.85;100.00;70650.75;5035546;28;20042;-80
2022/03/29 00:04:24;;;;;;;1.67;1.55;;;;;;;-143.85;100.00;70650.75;5035218;28;20041;-79
2022/03/29 00:06:50;;;;;;;5.38;2.17;;;;;;;-143.85;100.00;70650.75;5035607;28;20032;-79
2022/03/29 00:09:16;;;;;;;2.75;2.00;;;;;;;-143.85;100.00;70650.75;5035620;28;20021;-80
2022/03/29 00:11:43;;;;;;;4.05;2.25;;;;;;;-143.85;100.00;70650.75;5035166;28;20029;-80
2022/03/29 00:14:08;;;;;;;2.42;1.75;;;;;;;-143.85;100.00;70650.75;5035613;28;20484;-80
2022/03/29 00:19:55;;;;;;;3.50;3.30;;;;;;;-143.85;100.00;70650.75;5036281;28;20044;-80
2022/03/29 00:22:21;;;;;;;0.70;0.70;;;;;;;-143.85;100.00;70650.75;5035137;28;20025;-80
2022/03/29 00:24:46;;;;;;;2.08;1.98;;;;;;;-143.85;100.00;70650.75;5035685;28;20064;-80
2022/03/29 00:27:12;;;;;;;1.70;1.63;;;;;;;-143.85;100.00;70650.75;5051672;28;20045;-79
2022/03/29 00:29:37;;;;;;;2.63;2.40;;;;;;;-143.85;100.00;70650.75;5034946;28;20025;-80
2022/03/29 00:32:04;;;;;;;1.98;1.88;;;;;;;-143.85;100.00;70650.75;5034708;28;20480;-80
2022/03/29 00:34:29;;;;;;;1.55;1.52;;;;;;;-143.85;100.00;70650.75;5034660;28;20067;-80
2022/03/29 00:36:55;;;;;;;1.25;1.20;;;;;;;-143.85;100.00;70650.75;5036126;28;20047;-80
2022/03/29 00:39:20;;;;;;;6.00;3.20;;;;;;;-143.85;100.00;70650.75;5034994;28;20035;-79
2022/03/29 00:41:46;;;;;;;5.15;2.85;;;;;;;-143.85;100.00;70650.75;5034882;28;20028;-78
2022/03/29 00:44:14;;;;;;;1.40;1.35;;;;;;;-143.85;100.00;70650.75;5034594;28;20025;-79
2022/03/29 00:46:40;;;;;;;3.80;2.33;;;;;;;-143.85;100.00;70650.75;5034310;28;20021;-79
2022/03/29 00:49:06;;;;;;;1.40;1.20;;;;;;;-143.85;100.00;70650.75;5035285;28;20032;-78
2022/03/29 00:51:31;;;;;;;1.42;1.38;;;;;;;-143.85;100.00;70650.75;5035446;28;20055;-79
2022/03/29 00:53:57;;;;;;;4.07;3.67;;;;;;;-143.85;100.00;70650.75;5035026;28;20025;-80
2022/03/29 00:56:22;;;;;;;1.40;1.08;;;;;;;-143.85;100.00;70650.75;5035326;28;20021;-79
2022/03/29 00:58:49;;;;;;;3.10;2.75;;;;;;;-143.85;100.00;70650.75;5035504;28;20025;-79
2022/03/29 01:01:15;;;;;;;1.38;1.33;;;;;;;-143.85;100.00;70650.75;5034071;28;20057;-80
2022/03/29 01:03:41;;;;;;;1.48;1.48;;;;;;;-143.85;100.00;70650.75;5033984;28;20013;-80
2022/03/29 01:06:08;;;;;;;2.67;2.47;;;;;;;-143.85;100.00;70650.75;5035712;28;20025;-79
2022/03/29 01:08:35;;;;;;;1.23;1.17;;;;;;;-143.85;100.00;70650.75;5035261;28;20044;-80
2022/03/29 01:11:02;;;;;;;3.20;1.90;;;;;;;-143.85;100.00;70650.75;5034136;28;20026;-79
2022/03/29 01:13:27;;;;;;;2.60;2.30;;;;;;;-143.85;100.00;70650.75;5033986;28;20025;-79
2022/03/29 01:15:53;;;;;;;0.98;0.98;;;;;;;-143.85;100.00;70650.75;5034454;28;20021;-80
2022/03/29 01:18:20;;;;;;;1.60;1.50;;;;;;;-143.85;100.00;70650.75;5034259;28;20022;-79
2022/03/29 01:20:50;;;;;;;1.63;1.52;;;;;;;-143.85;100.00;70650.75;5035020;28;20445;-79
2022/03/29 01:23:17;;;;;;;1.35;1.30;;;;;;;-143.85;100.00;70650.75;5034904;28;20497;-79
2022/03/29 01:25:44;;;;;;;2.00;1.63;;;;;;;-143.85;100.00;70650.75;5034947;28;20032;-79
2022/03/29 01:28:11;;;;;;;1.55;1.30;;;;;;;-143.85;100.00;70650.75;5035183;28;20025;-79
2022/03/29 01:30:37;;;;;;;1.58;1.20;;;;;;;-143.85;100.00;70650.75;5035188;28;20393;-79
2022/03/29 01:33:06;;;;;;;0.93;0.93;;;;;;;-143.85;100.00;70650.75;5033546;28;20017;-80
2022/03/29 01:35:33;;;;;;;2.42;1.02;;;;;;;-143.85;100.00;70650.75;5033561;28;20025;-80
2022/03/29 01:37:58;;;;;;;1.08;1.08;;;;;;;-143.85;100.00;70650.75;5033610;28;20063;-79
2022/03/29 01:40:26;;;;;;;0.85;0.85;;;;;;;-143.85;100.00;70650.75;5033459;28;20060;-80
2022/03/29 01:42:55;;;;;;;4.03;1.43;;;;;;;-143.85;100.00;70650.75;5033543;28;20021;-79
2022/03/29 01:45:22;;;;;;;1.02;0.90;;;;;;;-143.85;100.00;70650.75;5033258;28;20033;-79
2022/03/29 01:47:48;;;;;;;0.95;0.95;;;;;;;-143.85;100.00;70650.75;5033487;28;20026;-79
2022/03/29 01:50:14;;;;;;;0.60;0.60;;;;;;;-143.85;100.00;70650.75;5033277;28;20389;-79
2022/03/29 01:52:41;;;;;;;1.10;1.10;;;;;;;-143.85;100.00;70650.75;5034498;28;20017;-80
2022/03/29 01:55:11;;;;;;;0.75;0.75;;;;;;;-143.85;100.00;70650.75;5033945;28;20049;-79
2022/03/29 01:57:37;;;;;;;0.73;0.73;;;;;;;-143.85;100.00;70650.75;5033213;28;20401;-79
2022/03/29 02:02:52;;;;;;;1.10;0.93;;;;;;;-143.85;100.00;70650.75;5034855;28;20040;-79
2022/03/29 02:05:19;;;;;;;1.83;1.73;;;;;;;-143.85;100.00;70650.75;5033135;28;20120;-80
2022/03/29 02:07:45;;;;;;;2.35;2.15;;;;;;;-143.85;100.00;70650.75;5034251;28;20079;-80
2022/03/29 02:10:11;;;;;;;0.95;0.93;;;;;;;-143.85;100.00;70650.75;5032337;28;20424;-80
2022/03/29 02:12:37;;;;;;;0.93;0.93;;;;;;;-143.85;100.00;70650.75;5034097;28;20029;-79
2022/03/29 02:15:03;;;;;;;1.40;1.38;;;;;;;-143.85;100.00;70650.75;5032840;28;20024;-80
2022/03/29 02:17:29;;;;;;;2.30;1.60;;;;;;;-143.85;100.00;70650.75;5032935;28;20094;-79
2022/03/29 02:19:54;;;;;;;2.58;2.42;;;;;;;-143.85;100.00;70650.75;5032793;28;20461;-79
2022/03/29 02:22:20;;;;;;;1.17;1.08;;;;;;;-143.85;100.00;70650.75;5033561;28;20024;-79
2022/03/29 02:24:45;;;;;;;1.40;1.00;;;;;;;-143.85;100.00;70650.75;5032835;28;20022;-79
2022/03/29 02:27:11;;;;;;;0.60;0.60;;;;;;;-143.85;100.00;70650.75;5032566;28;20040;-80
2022/03/29 02:29:36;;;;;;;7.55;2.30;;;;;;;-143.85;100.00;70650.75;5032574;28;20051;-80
2022/03/29 02:32:02;;;;;;;4.72;1.45;;;;;;;-143.85;100.00;70650.75;5033790;28;20028;-80
2022/03/29 02:34:27;;;;;;;1.27;1.27;;;;;;;-143.85;100.00;70650.75;5033312;28;20438;-79
2022/03/29 02:36:54;;;;;;;3.63;2.25;;;;;;;-143.85;100.00;70650.75;5032638;28;20024;-80
2022/03/29 02:39:20;;;;;;;1.42;1.42;;;;;;;-143.85;100.00;70650.75;5032425;28;20017;-80
2022/03/29 02:41:45;;;;;;;1.65;1.55;;;;;;;-143.85;100.00;70650.75;5033472;28;20017;-80
2022/03/29 02:44:11;;;;;;;3.03;2.83;;;;;;;-143.85;100.00;70650.75;5032118;28;20126;-80
2022/03/29 02:46:36;;;;;;;3.65;2.58;;;;;;;-143.85;100.00;70650.75;5032991;28;20033;-80
2022/03/29 02:49:02;;;;;;;1.48;1.15;;;;;;;-143.85;100.00;70650.75;5032830;28;20021;-80
2022/03/29 02:51:27;;;;;;;1.38;1.23;;;;;;;-143.85;100.00;70650.75;5032464;28;20024;-80
2022/03/29 02:53:53;;;;;;;1.75;1.65;;;;;;;-143.85;100.00;70650.75;5048954;28;20025;-80
2022/03/29 02:56:19;;;;;;;1.65;1.55;;;;;;;-143.85;100.00;70650.75;5032488;28;20493;-80
2022/03/29 02:58:44;;;;;;;1.48;1.40;;;;;;;-143.85;100.00;70650.75;5032691;28;20029;-80
2022/03/29 03:01:10;;;;;;;1.20;1.17;;;;;;;-143.85;100.00;70650.75;5032163;28;20499;-80
2022/03/29 03:03:35;;;;;;;3.17;2.97;;;;;;;-143.85;100.00;70650.75;5033521;28;20021;-81
2022/03/29 03:06:00;;;;;;;0.95;0.95;;;;;;;-143.85;100.00;70650.75;5032272;28;20033;-80
2022/03/29 03:08:27;;;;;;;3.15;2.33;;;;;;;-143.85;100.00;70650.75;5033385;28;20021;-80
2022/03/29 03:10:52;;;;;;;5.93;1.50;;;;;;;-143.85;100.00;70650.75;5033315;28;20465;-80
2022/03/29 03:13:18;;;;;;;1.65;1.35;;;;;;;-143.85;100.00;70650.75;5033516;28;20013;-80
2022/03/29 03:15:43;;;;;;;1.80;1.20;;;;;;;-143.85;100.00;70650.75;5033321;28;20445;-81
2022/03/29 03:18:09;;;;;;;2.47;2.35;;;;;;;-143.85;100.00;70650.75;5048818;28;20523;-81
2022/03/29 03:20:35;;;;;;;2.20;2.10;;;;;;;-143.85;100.00;70650.75;5031115;28;20021;-81
2022/03/29 03:23:01;;;;;;;1.40;0.85;;;;;;;-143.85;100.00;70650.75;5032769;28;20071;-81
2022/03/29 03:25:27;;;;;;;6.72;1.98;;;;;;;-143.85;100.00;70650.75;5032326;28;20029;-81
2022/03/29 03:27:52;;;;;;;1.60;1.50;;;;;;;-143.85;100.00;70650.75;5032014;28;20457;-81
2022/03/29 03:30:18;;;;;;;1.08;1.08;;;;;;;-143.85;100.00;70650.75;5032199;28;20033;-81
2022/03/29 03:32:43;;;;;;;1.10;1.10;;;;;;;-143.85;100.00;70650.75;5033251;28;20108;-80
2022/03/29 03:35:10;;;;;;;1.05;1.02;;;;;;;-143.85;100.00;70650.75;5032339;28;20056;-82
2022/03/29 03:37:36;;;;;;;1.70;1.60;;;;;;;-143.85;100.00;70650.75;5031982;28;20032;-80
2022/03/29 03:40:04;;;;;;;2.08;1.95;;;;;;;-143.85;100.00;70650.75;5031672;28;20029;-80
2022/03/29 03:42:30;;;;;;;2.35;2.05;;;;;;;-143.85;100.00;70650.75;5031530;28;20109;-80
2022/03/29 03:44:57;;;;;;;1.95;1.35;;;;;;;-143.85;100.00;70650.75;5032041;28;20053;-81
2022/03/29 03:47:23;;;;;;;0.60;0.60;;;;;;;-143.85;100.00;70650.75;5031907;28;20021;-80
2022/03/29 03:49:48;;;;;;;3.90;1.65;;;;;;;-143.85;100.00;70650.75;5031562;28;20484;-81
2022/03/29 03:52:13;;;;;;;13.25;3.95;;;;;;;-143.85;100.00;70650.75;5031248;28;20022;-79
2022/03/29 03:54:39;;;;;;;1.95;1.35;;;;;;;-143.85;100.00;70650.75;5031479;28;20175;-80
2022/03/29 03:57:05;;;;;;;1.80;1.73;;;;;;;-143.85;100.00;70650.75;5031666;28;20025;-80
2022/03/29 03:59:31;;;;;;;2.85;1.60;;;;;;;-143.85;100.00;70650.75;5031318;28;20077;-80
2022/03/29 04:01:57;;;;;;;1.33;1.25;;;;;;;-143.85;100.00;70650.75;5030811;28;20053;-80
2022/03/29 04:04:23;;;;;;;1.08;0.98;;;;;;;-143.85;100.00;70650.75;5031364;28;20139;-81
2022/03/29 04:06:49;;;;;;;3.55;2.80;;;;;;;-143.85;100.00;70650.75;5031392;28;20240;-81
2022/03/29 04:09:14;;;;;;;3.10;2.85;;;;;;;-143.85;100.00;70650.75;5032475;28;20021;-80
2022/03/29 04:11:40;;;;;;;2.10;1.88;;;;;;;-143.85;100.00;70650.75;5031006;28;20485;-81
2022/03/29 04:14:05;;;;;;;0.85;0.85;;;;;;;-143.85;100.00;70650.75;5031623;28;20116;-81
2022/03/29 04:16:31;;;;;;;4.03;3.72;;;;;;;-143.85;100.00;70650.75;5031909;28;20033;-80
2022/03/29 04:18:56;;;;;;;1.20;1.20;;;;;;;-143.85;100.00;70650.75;5031333;28;20470;-80
2022/03/29 04:21:22;;;;;;;1.48;1.38;;;;;;;-143.85;100.00;70650.75;5031845;28;20057;-80
2022/03/29 04:23:47;;;;;;;1.20;1.10;;;;;;;-143.85;100.00;70650.75;5032052;28;20053;-80
2022/03/29 04:26:13;;;;;;;1.40;1.38;;;;;;;-143.85;100.00;70650.75;5031291;28;20400;-80
2022/03/29 04:28:39;;;;;;;4.40;1.52;;;;;;;-143.85;100.00;70650.75;5032019;28;20021;-80
2022/03/29 04:31:04;;;;;;;1.77;1.67;;;;;;;-143.85;100.00;70650.75;5031361;28;20461;-81
2022/03/29 04:33:30;;;;;;;0.95;0.95;;;;;;;-143.85;100.00;70650.75;5034735;28;20052;-81
2022/03/29 04:35:56;;;;;;;4.07;3.78;;;;;;;-143.85;100.00;70650.75;5034829;28;20021;-82
2022/03/29 04:38:23;;;;;;;3.45;2.22;;;;;;;-143.85;100.00;70650.75;5034910;28;20029;-80
2022/03/29 04:40:49;;;;;;;1.60;1.50;;;;;;;-143.85;100.00;70650.75;5034303;28;20036;-80
2022/03/29 04:43:15;;;;;;;1.80;1.70;;;;;;;-143.85;100.00;70650.75;5034797;28;20029;-81
2022/03/29 04:45:41;;;;;;;2.55;1.73;;;;;;;-143.85;100.00;70650.75;5035297;28;20028;-80
2022/03/29 04:48:06;;;;;;;2.22;2.08;;;;;;;-143.85;100.00;70650.75;5036108;28;20104;-80
2022/03/29 04:50:32;;;;;;;4.50;2.08;;;;;;;-143.85;100.00;70650.75;5034729;28;20080;-80
2022/03/29 04:52:57;;;;;;;2.13;1.85;;;;;;;-143.85;100.00;70650.75;5036242;28;20017;-80
2022/03/29 04:55:23;;;;;;;0.77;0.77;;;;;;;-143.85;100.00;70650.75;5035264;28;20087;-80
2022/03/29 04:57:49;;;;;;;1.48;1.38;;;;;;;-143.85;100.00;70650.75;5051026;28;20025;-80
2022/03/29 05:00:17;;;;;;;1.77;1.67;;;;;;;-143.85;100.00;70650.75;5034345;28;20132;-80
2022/03/29 05:02:44;;;;;;;1.25;1.15;;;;;;;-143.85;100.00;70650.75;5034530;28;20021;-80
2022/03/29 05:05:10;;;;;;;1.70;1.60;;;;;;;-143.85;100.00;70650.75;5034585;28;20033;-81
2022/03/29 05:07:37;;;;;;;1.90;1.80;;;;;;;-143.85;100.00;70650.75;5034648;28;20113;-80
2022/03/29 05:10:08;;;;;;;1.50;1.50;;;;;;;-143.85;100.00;70650.75;5034315;28;20022;-79
2022/03/29 05:12:44;;;;;;;2.05;1.95;;;;;;;-143.85;100.00;70650.75;5034312;28;20060;-80
2022/03/29 05:15:12;;;;;;;5.20;3.28;;;;;;;-143.85;100.00;70650.75;5034186;28;20036;-79
2022/03/29 05:17:38;;;;;;;2.40;2.08;;;;;;;-143.85;100.00;70650.75;5034328;28;20028;-80
2022/03/29 05:20:06;;;;;;;2.53;2.33;;;;;;;-143.85;100.00;70650.75;5034149;28;20030;-80
2022/03/29 05:22:31;;;;;;;2.83;2.63;;;;;;;-143.85;100.00;70650.75;5034600;28;20053;-79
2022/03/29 05:24:57;;;;;;;4.35;2.13;;;;;;;-143.85;100.00;70650.75;5034156;28;20060;-80
2022/03/29 05:27:23;;;;;;;1.10;1.10;;;;;;;-143.85;100.00;70650.75;5034066;28;20029;-80
2022/03/29 05:29:48;;;;;;;4.82;1.88;;;;;;;-143.85;100.00;70650.75;5033542;28;20025;-80
2022/03/29 05:32:18;;;;;;;1.23;1.17;;;;;;;-143.85;100.00;70650.75;5033780;28;20023;-80
2022/03/29 05:34:47;;;;;;;1.17;1.17;;;;;;;-143.85;100.00;70650.75;5034827;28;20029;-80
2022/03/29 05:37:14;;;;;;;1.70;1.45;;;;;;;-143.85;100.00;70650.75;5034372;28;20035;-80
2022/03/29 05:39:43;;;;;;;1.13;1.13;;;;;;;-143.85;100.00;70650.75;5033708;28;20140;-80
2022/03/29 05:42:10;;;;;;;2.28;2.15;;;;;;;-143.85;100.00;70650.75;5033548;28;20473;-80
2022/03/29 05:44:37;;;;;;;1.77;1.42;;;;;;;-143.85;100.00;70650.75;5032894;28;20030;-80
2022/03/29 05:49:46;;;;;;;2.25;1.02;;;;;;;-143.85;100.00;70650.75;5035113;28;20040;-81
2022/03/29 05:52:12;;;;;;;0.77;0.77;;;;;;;-143.85;100.00;70650.75;5034077;28;20385;-78
2022/03/29 05:54:39;;;;;;;1.50;1.45;;;;;;;-143.85;100.00;70650.75;5033636;28;20032;-79
2022/03/29 05:57:06;;;;;;;1.15;1.05;;;;;;;-143.85;100.00;70650.75;5033189;28;20074;-79
2022/03/29 05:59:32;;;;;;;1.13;1.13;;;;;;;-143.85;100.00;70650.75;5033741;28;20087;-78
2022/03/29 06:02:04;;;;;;;0.68;0.68;;;;;;;-143.85;100.00;70650.75;5033212;28;20523;-78
2022/03/29 06:04:32;;;;;;;4.85;2.28;;;;;;;-143.85;100.00;70650.75;5035187;28;20032;-78
2022/03/29 06:06:58;;;;;;;1.67;1.33;;;;;;;-143.85;100.00;70650.75;5033032;28;20021;-78
2022/03/29 06:09:24;;;;;;;1.48;1.33;;;;;;;-143.85;100.00;70650.75;5033857;28;20025;-79
2022/03/29 06:11:50;;;;;;;1.08;0.98;;;;;;;-143.85;100.00;70650.75;5032941;28;20552;-80
2022/03/29 06:14:16;;;;;;;2.67;2.13;;;;;;;-143.85;100.00;70650.75;5033003;28;20029;-78
2022/03/29 06:16:42;;;;;;;5.28;1.27;;;;;;;-143.85;100.00;70650.75;5033552;28;20037;-78
2022/03/29 06:19:09;;;;;;;5.00;2.72;;;;;;;-143.85;100.00;70650.75;5033042;28;20017;-79
2022/03/29 06:21:36;;;;;;;4.97;3.95;;;;;;;-143.85;100.00;70650.75;5024765;28;20124;-81
2022/03/29 06:24:07;;;;;;;4.60;1.80;;;;;;;-143.85;100.00;70650.75;5025121;28;20083;-80
2022/03/29 06:26:36;;;;;;;5.82;2.25;;;;;;;-143.85;100.00;70650.75;5025003;28;20033;-81
2022/03/29 06:29:02;;;;;;;2.60;2.00;;;;;;;-143.85;100.00;70650.75;5027972;28;20025;-80
2022/03/29 06:31:28;;;;;;;3.88;3.10;;;;;;;-143.85;100.00;70650.75;5012809;28;20375;-80
2022/03/29 06:33:53;;;;;;;2.33;0.95;;;;;;;-143.85;100.00;70650.75;5014726;28;20014;-81
2022/03/29 06:36:19;;;;;;;2.25;2.05;;;;;;;-143.85;100.00;70650.75;5024852;28;20076;-79
2022/03/29 06:38:44;;;;;;;9.32;3.83;;;;;;;-143.85;100.00;70650.75;5025456;28;20056;-79
2022/03/29 06:41:22;;;;;;;3.83;2.45;;;;;;;-143.85;100.00;70650.75;5017985;28;20029;-80
2022/03/29 06:43:48;;;;;;;2.65;2.45;;;;;;;-143.85;100.00;70650.75;5031686;28;20017;-79
2022/03/29 06:46:15;;;;;;;2.47;1.85;;;;;;;-143.85;100.00;70650.75;5016544;28;20029;-79
2022/03/29 06:48:41;;;;;;;1.17;1.17;;;;;;;-143.85;100.00;70650.75;5013850;28;20029;-77
2022/03/29 06:51:10;;;;;;;1.40;1.30;;;;;;;-143.85;100.00;70650.75;5013167;28;20100;-78
2022/03/29 06:53:38;;;;;;;0.68;0.68;;;;;;;-143.85;100.00;70650.75;5021804;28;20010;-80
2022/03/29 06:56:04;;;;;;;5.68;3.13;;;;;;;-143.85;100.00;70650.75;5023526;28;20029;-79
2022/03/29 06:58:30;;;;;;;10.05;1.33;;;;;;;-143.85;100.00;70650.75;5027326;28;20018;-80
2022/03/29 07:00:56;;;;;;;4.13;1.75;;;;;;;-143.85;100.00;70650.75;5047963;28;20053;-82
2022/03/29 07:03:23;;;;;;;1.42;1.13;;;;;;;-143.85;100.00;70650.75;5032146;28;20028;-81
2022/03/29 07:05:49;;;;;;;2.47;1.42;;;;;;;-143.85;100.00;70650.75;5031919;28;20021;-82
2022/03/29 07:08:18;;;;;;;1.60;1.42;;;;;;;-143.85;100.00;70650.75;5031280;28;20018;-80
2022/03/29 07:13:28;;;;;;;2.75;1.77;;;;;;;-143.85;100.00;70650.75;5032583;28;20075;-79
2022/03/29 07:15:53;;;;;;;2.38;1.80;;;;;;;-143.85;100.00;70650.75;5032325;28;20108;-81
2022/03/29 07:18:19;;;;;;;13.60;1.35;;;;;;;-143.85;100.00;70650.75;5031145;28;20029;-81
2022/03/29 07:20:45;;;;;;;2.47;2.25;;;;;;;-143.85;100.00;70650.75;5033209;28;20025;-81
2022/03/29 07:23:11;;;;;;;6.00;2.67;;;;;;;-143.85;100.00;70650.75;5032008;28;20017;-82
2022/03/29 07:25:37;;;;;;;4.88;2.63;;;;;;;-143.85;100.00;70650.75;5031738;28;20120;-81
2022/03/29 07:28:03;;;;;;;7.28;3.33;;;;;;;-143.85;100.00;70650.75;5032339;28;20446;-80
2022/03/29 07:30:30;;;;;;;6.72;2.63;;;;;;;-143.85;100.00;70650.75;5031770;28;20461;-80
2022/03/29 07:32:57;;;;;;;5.10;3.00;;;;;;;-143.85;100.00;70650.75;5031861;28;20029;-80
2022/03/29 07:35:25;;;;;;;0.85;0.82;;;;;;;-143.85;100.00;70650.75;5033120;28;20021;-80
2022/03/29 07:37:51;;;;;;;0.82;0.82;;;;;;;-143.85;100.00;70650.75;5032983;28;20022;-80
2022/03/29 07:40:20;;;;;;;5.75;2.60;;;;;;;-143.85;100.00;70650.75;5032937;28;20025;-80
2022/03/29 07:42:45;;;;;;;4.85;1.80;;;;;;;-143.85;100.00;70650.75;5031745;28;20025;-82
2022/03/29 07:45:12;;;;;;;5.88;1.75;;;;;;;-143.85;100.00;70650.75;5031613;28;20018;-81
2022/03/29 07:47:38;;;;;;;1.30;0.88;;;;;;;-143.85;100.00;70650.75;5031427;28;20040;-81
2022/03/29 07:50:06;;;;;;;1.23;1.05;;;;;;;-143.85;100.00;70650.75;5028158;28;20028;-79
2022/03/29 07:52:36;;;;;;;2.00;0.90;;;;;;;-143.85;100.00;70650.75;5028098;28;20041;-80
2022/03/29 07:55:04;;;;;;;1.73;1.20;;;;;;;-143.85;100.00;70650.75;5030889;28;20041;-81
2022/03/29 07:57:29;;;;;;;2.22;1.50;;;;;;;-143.85;100.00;70650.75;5031294;28;20021;-80
2022/03/29 07:59:55;;;;;;;1.70;1.38;;;;;;;-143.85;100.00;70650.75;5031808;28;20025;-79
2022/03/29 08:02:20;;;;;;;3.00;1.35;;;;;;;-143.85;100.00;70650.75;5030958;28;20025;-79
2022/03/29 08:04:45;;;;;;;4.28;2.28;;;;;;;-143.85;100.00;70650.75;5031134;28;20018;-79
2022/03/29 08:07:12;;;;;;;1.48;1.00;;;;;;;-143.85;100.00;70650.75;5032816;28;20033;-80
2022/03/29 08:09:37;;;;;;;11.75;1.75;;;;;;;-143.85;100.00;70650.75;5035114;28;20045;-79
2022/03/29 08:12:03;;;;;;;2.55;1.55;;;;;;;-143.85;100.00;70650.75;5034991;28;20064;-79
2022/03/29 08:14:29;;;;;;;2.35;1.25;;;;;;;-143.85;100.00;70650.75;5034814;28;20028;-79
2022/03/29 08:16:56;;;;;;;2.53;1.25;;;;;;;-143.85;100.00;70650.75;5034808;28;20025;-80
2022/03/29 08:19:22;;;;;;;1.70;1.60;;;;;;;-143.85;100.00;70650.75;5034964;28;20032;-79
2022/03/29 08:21:50;;;;;;;0.95;0.95;;;;;;;-143.85;100.00;70650.75;5035875;28;20509;-78
2022/03/29 08:24:21;;;;;;;3.58;1.35;;;;;;;-143.85;100.00;70650.75;5033716;28;20025;-79
2022/03/29 08:26:48;;;;;;;0.95;0.82;;;;;;;-143.85;100.00;70650.75;5035059;28;20042;-79
2022/03/29 08:29:16;;;;;;;1.42;1.13;;;;;;;-143.85;100.00;70650.75;5034594;28;20385;-78
2022/03/29 08:31:47;;;;;;;1.73;1.63;;;;;;;-143.85;100.00;70650.75;5026351;28;20120;-80
2022/03/29 08:34:13;;;;;;;1.02;1.02;;;;;;;-143.85;100.00;70650.75;5035504;28;20014;-77
2022/03/29 08:36:39;;;;;;;1.85;1.13;;;;;;;-143.85;100.00;70650.75;5033451;28;20037;-80
2022/03/29 08:39:07;;;;;;;1.85;1.48;;;;;;;-143.85;100.00;70650.75;5025958;28;20030;-78
2022/03/29 08:41:55;;;;;;;1.50;1.27;;;;;;;-143.85;100.00;70650.75;5012981;28;20040;-78
2022/03/29 08:44:23;;;;;;;15.82;2.22;;;;;;;-143.85;100.00;70650.75;5010894;28;20026;-79
2022/03/29 08:46:49;;;;;;;1.42;1.33;;;;;;;-143.85;100.00;70650.75;5020221;28;20037;-80
2022/03/29 08:49:17;;;;;;;0.70;0.70;;;;;;;-143.85;100.00;70650.75;5031099;28;20021;-80
2022/03/29 08:51:43;;;;;;;1.10;0.73;;;;;;;-143.85;100.00;70650.75;5014871;28;20041;-79
2022/03/29 08:54:09;;;;;;;3.00;1.88;;;;;;;-143.85;100.00;70650.75;5014196;28;20030;-78
2022/03/29 08:56:35;;;;;;;2.03;1.27;;;;;;;-143.85;100.00;70650.75;5014125;28;20049;-78
2022/03/29 08:59:00;;;;;;;1.88;1.70;;;;;;;-143.85;100.00;70650.75;5014222;28;20025;-78
2022/03/29 09:01:27;;;;;;;3.58;2.30;;;;;;;-143.85;100.00;70650.75;5015699;28;20050;-79
2022/03/29 09:04:22;;;;;;;1.85;1.75;;;;;;;-143.85;100.00;70650.75;5014326;28;20025;-79
2022/03/29 09:06:51;;;;;;;1.52;1.42;;;;;;;-143.85;100.00;70650.75;5005652;28;20104;-77
2022/03/29 09:09:40;;;;;;;0.75;0.75;;;;;;;-143.85;100.00;70650.75;5014816;28;20040;-77
2022/03/29 09:12:17;;;;;;;1.27;1.20;;;;;;;-143.85;100.00;70650.75;5014743;28;20030;-80
2022/03/29 09:14:59;;;;;;;1.35;1.25;;;;;;;-143.85;100.00;70650.75;5015862;28;20018;-78
2022/03/29 09:17:39;;;;;;;0.98;0.98;;;;;;;-143.85;100.00;70650.75;5015023;28;20129;-77
2022/03/29 09:20:06;;;;;;;9.23;1.52;;;;;;;-143.85;100.00;70650.75;5014357;28;20022;-79
2022/03/29 09:22:42;;;;;;;0.70;0.47;;;;;;;-143.85;100.00;70650.75;5014965;28;20022;-78
2022/03/29 09:25:29;;;;;;;1.85;0.88;;;;;;;-143.85;100.00;70650.75;5014266;28;20025;-80
2022/03/29 09:28:06;;;;;;;6.17;1.70;;;;;;;-143.85;100.00;70650.75;5020282;28;20132;-80
2022/03/29 09:30:40;;;;;;;2.40;1.48;;;;;;;-143.85;100.00;70650.75;5034245;28;20025;-80
2022/03/29 09:33:11;;;;;;;0.98;0.98;;;;;;;-143.85;100.00;70650.75;5033614;28;20134;-79
2022/03/29 09:36:07;;;;;;;2.17;1.55;;;;;;;-143.85;100.00;70650.75;5033807;28;20029;-80
2022/03/29 09:38:39;;;;;;;0.95;0.95;;;;;;;-143.85;100.00;70650.75;5033444;28;20037;-77
2022/03/29 09:41:32;;;;;;;6.07;1.65;;;;;;;-143.85;100.00;70650.75;5032022;28;20029;-79
2022/03/29 09:44:12;;;;;;;1.08;1.08;;;;;;;-143.85;100.00;70650.75;5034415;28;20029;-80
2022/03/29 09:47:02;;;;;;;7.57;0.93;;;;;;;-143.85;100.00;70650.75;5034275;28;20025;-79
2022/03/29 09:49:28;;;;;;;1.40;1.35;;;;;;;-143.85;100.00;70650.75;5033879;28;20053;-78
2022/03/29 09:52:10;;;;;;;1.83;1.10;;;;;;;-143.85;100.00;70650.75;5032410;28;20465;-79
2022/03/29 09:54:36;;;;;;;1.90;1.08;;;;;;;-143.85;100.00;70650.75;5034185;28;20025;-78
2022/03/29 09:57:03;;;;;;;0.90;0.85;;;;;;;-143.85;100.00;70650.75;5034316;28;20109;-77
2022/03/29 09:59:31;;;;;;;1.00;1.00;;;;;;;-143.85;100.00;70650.75;5033177;28;20033;-77
2022/03/29 10:01:58;;;;;;;0.65;0.65;;;;;;;-143.85;100.00;70650.75;5032518;28;20049;-79
2022/03/29 10:04:28;;;;;;;1.73;1.42;;;;;;;-143.85;100.00;70650.75;5032478;28;20028;-77
2022/03/29 10:06:59;;;;;;;1.30;1.02;;;;;;;-143.85;100.00;70650.75;5033192;28;20385;-79
2022/03/29 10:09:30;;;;;;;3.17;1.17;;;;;;;-143.85;100.00;70650.75;5033581;28;20017;-79
2022/03/29 10:11:59;;;;;;;1.17;0.88;;;;;;;-143.85;100.00;70650.75;5033760;28;20393;-78
2022/03/29 10:14:27;;;;;;;3.83;1.55;;;;;;;-143.85;100.00;70650.75;5033643;28;20540;-77
2022/03/29 10:16:54;;;;;;;0.93;0.75;;;;;;;-143.85;100.00;70650.75;5033747;28;20365;-78
2022/03/29 10:19:20;;;;;;;0.95;0.95;;;;;;;-143.85;100.00;70650.75;5033792;28;20388;-80
2022/03/29 10:21:46;;;;;;;3.28;0.90;;;;;;;-143.85;100.00;70650.75;5033582;28;20072;-78
2022/03/29 10:24:16;;;;;;;0.77;0.75;;;;;;;-143.85;100.00;70650.75;5032220;28;20049;-79
2022/03/29 10:26:47;;;;;;;1.75;1.65;;;;;;;-143.85;100.00;70650.75;5034067;28;20471;-78
2022/03/29 10:29:12;;;;;;;12.75;1.60;;;;;;;-143.85;100.00;70650.75;5031886;28;20025;-79
2022/03/29 10:32:01;;;;;;;2.20;1.02;;;;;;;-143.85;100.00;70650.75;5034633;28;20378;-80
2022/03/29 10:34:30;;;;;;;1.75;1.55;;;;;;;-143.85;100.00;70650.75;5031020;28;20022;-77
2022/03/29 10:37:17;;;;;;;0.70;0.70;;;;;;;-143.85;100.00;70650.75;5032105;28;20393;-77
2022/03/29 10:39:53;;;;;;;3.42;1.23;;;;;;;-143.85;100.00;70650.75;5031982;28;20044;-78
2022/03/29 10:42:28;;;;;;;1.63;1.25;;;;;;;-143.85;100.00;70650.75;5031972;28;20122;-78
2022/03/29 10:45:23;;;;;;;1.38;1.02;;;;;;;-143.85;100.00;70650.75;5031757;28;20025;-79
2022/03/29 10:47:55;;;;;;;1.30;0.85;;;;;;;-143.85;100.00;70650.75;5030536;28;20029;-80
2022/03/29 10:50:21;;;;;;;5.07;1.48;;;;;;;-143.85;100.00;70650.75;5031724;28;20029;-80
2022/03/29 10:52:49;;;;;;;4.50;1.73;;;;;;;-143.85;100.00;70650.75;5032199;28;20028;-78
2022/03/29 10:55:28;;;;;;;0.63;0.63;;;;;;;-143.85;100.00;70650.75;5032999;28;20032;-78
2022/03/29 10:58:08;;;;;;;1.30;1.05;;;;;;;-143.85;100.00;70650.75;5033093;28;20166;-79
2022/03/29 11:00:36;;;;;;;5.47;0.95;;;;;;;-143.85;100.00;70650.75;5033042;28;20056;-80
2022/03/29 11:03:21;;;;;;;0.57;0.57;;;;;;;-143.85;100.00;70650.75;5031472;28;20511;-78
2022/03/29 11:06:12;;;;;;;0.60;0.60;;;;;;;-143.85;100.00;70650.75;5031423;28;20025;-76
2022/03/29 11:08:46;;;;;;;1.30;1.20;;;;;;;-143.85;100.00;70650.75;5031484;28;20452;-77
2022/03/29 11:11:39;;;;;;;5.82;1.95;;;;;;;-143.85;100.00;70650.75;5031417;28;20024;-77
2022/03/29 11:14:27;;;;;;;7.25;1.88;;;;;;;-143.85;100.00;70650.75;5031850;28;20075;-78
2022/03/29 11:17:13;;;;;;;3.30;0.75;;;;;;;-143.85;100.00;70650.75;5028851;28;20029;-78
2022/03/29 11:19:44;;;;;;;6.10;1.42;;;;;;;-143.85;100.00;70650.75;5027824;28;20029;-79
2022/03/29 11:22:21;;;;;;;1.20;1.00;;;;;;;-143.85;100.00;70650.75;5017048;28;20053;-77
2022/03/29 11:24:49;;;;;;;2.05;1.20;;;;;;;-143.85;100.00;70650.75;5043471;28;20557;-77
2022/03/29 11:27:26;;;;;;;3.25;1.08;;;;;;;-143.85;100.00;70650.75;5014858;28;20022;-78